Time;durP1;ratioP1;P1;durP2;ratioP2;P2;SDS_P1;SDS_P2;PMS_P1;PMS_P2;Temp;Humidity;BMP_temperature;BMP_pressure;BME280_temperature;BME280_humidity;BME280_pressure;Samples;Min_cycle;Max_cycle;Signal;HPM_P1;HPM_P2
2022/10/06 00:00:08;;;;;;;0.00;0.00;;;;;;;;;;1739646;28;20199;-70
2022/10/06 00:01:01;;;;;;;0.00;0.00;;;;;;;;;;1738833;28;20709;-71
2022/10/06 00:01:53;;;;;;;0.00;0.00;;;;;;;;;;1739367;28;20629;-71
2022/10/06 00:02:45;;;;;;;0.00;0.00;;;;;;;;;;1738628;28;20231;-71
2022/10/06 00:03:37;;;;;;;0.00;0.00;;;;;;;;;;1739801;28;20206;-71
2022/10/06 00:04:28;;;;;;;0.00;0.00;;;;;;;;;;1738735;28;20275;-71
2022/10/06 00:05:22;;;;;;;0.00;0.00;;;;;;;;;;1739513;28;20226;-71
2022/10/06 00:06:14;;;;;;;0.00;0.00;;;;;;;;;;1739258;28;20272;-71
2022/10/06 00:07:06;;;;;;;0.00;0.00;;;;;;;;;;1738983;28;20203;-71
2022/10/06 00:07:57;;;;;;;0.00;0.00;;;;;;;;;;1739577;28;20234;-71
2022/10/06 00:08:49;;;;;;;0.00;0.00;;;;;;;;;;1738785;28;20548;-71
2022/10/06 00:09:40;;;;;;;0.00;0.00;;;;;;;;;;1736248;28;20663;-71
2022/10/06 00:10:32;;;;;;;0.00;0.00;;;;;;;;;;1739026;28;20237;-71
2022/10/06 00:11:23;;;;;;;0.00;0.00;;;;;;;;;;1739756;28;20276;-70
2022/10/06 00:12:16;;;;;;;0.00;0.00;;;;;;;;;;1738181;28;20219;-70
2022/10/06 00:13:08;;;;;;;0.00;0.00;;;;;;;;;;1740094;28;20736;-70
2022/10/06 00:14:00;;;;;;;0.00;0.00;;;;;;;;;;1739079;28;20211;-70
2022/10/06 00:14:51;;;;;;;0.00;0.00;;;;;;;;;;1739906;28;20207;-70
2022/10/06 00:15:43;;;;;;;0.00;0.00;;;;;;;;;;1738779;28;20611;-70
2022/10/06 00:16:34;;;;;;;0.00;0.00;;;;;;;;;;1739913;28;20772;-70
2022/10/06 00:17:26;;;;;;;0.00;0.00;;;;;;;;;;1738498;28;20227;-70
2022/10/06 00:18:17;;;;;;;0.00;0.00;;;;;;;;;;1739702;28;20214;-70
2022/10/06 00:19:09;;;;;;;0.00;0.00;;;;;;;;;;1738377;28;20210;-70
2022/10/06 00:20:03;;;;;;;0.00;0.00;;;;;;;;;;1739860;28;20244;-70
2022/10/06 00:20:57;;;;;;;0.00;0.00;;;;;;;;;;1738082;28;20230;-71
2022/10/06 00:21:48;;;;;;;0.00;0.00;;;;;;;;;;1739489;28;20249;-71
2022/10/06 00:22:42;;;;;;;0.00;0.00;;;;;;;;;;1737955;28;20285;-71
2022/10/06 00:23:33;;;;;;;0.00;0.00;;;;;;;;;;1739773;28;20233;-71
2022/10/06 00:24:26;;;;;;;0.00;0.00;;;;;;;;;;1738504;28;20206;-71
2022/10/06 00:25:18;;;;;;;0.00;0.00;;;;;;;;;;1740026;28;20342;-71
2022/10/06 00:26:12;;;;;;;0.00;0.00;;;;;;;;;;1738509;28;20714;-71
2022/10/06 00:27:03;;;;;;;0.00;0.00;;;;;;;;;;1738662;28;20249;-71
2022/10/06 00:27:56;;;;;;;0.00;0.00;;;;;;;;;;1739618;28;20237;-71
2022/10/06 00:28:47;;;;;;;0.00;0.00;;;;;;;;;;1738590;28;20227;-71
2022/10/06 00:29:41;;;;;;;0.00;0.00;;;;;;;;;;1739677;28;20227;-71
2022/10/06 00:30:32;;;;;;;0.00;0.00;;;;;;;;;;1738920;28;20207;-71
2022/10/06 00:31:24;;;;;;;0.00;0.00;;;;;;;;;;1739513;28;20208;-71
2022/10/06 00:32:15;;;;;;;0.00;0.00;;;;;;;;;;1738513;28;20806;-71
2022/10/06 00:33:07;;;;;;;0.00;0.00;;;;;;;;;;1739439;28;20256;-71
2022/10/06 00:33:58;;;;;;;0.00;0.00;;;;;;;;;;1738258;28;20234;-71
2022/10/06 00:34:52;;;;;;;0.00;0.00;;;;;;;;;;1739465;28;20199;-71
2022/10/06 00:35:44;;;;;;;0.00;0.00;;;;;;;;;;1738492;28;20207;-71
2022/10/06 00:36:37;;;;;;;0.00;0.00;;;;;;;;;;1739578;28;20230;-71
2022/10/06 00:37:29;;;;;;;0.00;0.00;;;;;;;;;;1738289;28;20417;-71
2022/10/06 00:38:20;;;;;;;0.00;0.00;;;;;;;;;;1739753;28;20290;-71
2022/10/06 00:39:12;;;;;;;0.00;0.00;;;;;;;;;;1738011;28;20203;-71
2022/10/06 00:40:08;;;;;;;0.00;0.00;;;;;;;;;;1739903;28;20266;-71
2022/10/06 00:41:00;;;;;;;0.00;0.00;;;;;;;;;;1738043;28;20581;-71
2022/10/06 00:41:51;;;;;;;0.00;0.00;;;;;;;;;;1739127;28;20246;-70
2022/10/06 00:42:50;;;;;;;0.00;0.00;;;;;;;;;;1738470;28;20195;-70
2022/10/06 00:43:43;;;;;;;0.00;0.00;;;;;;;;;;1739198;28;20242;-70
2022/10/06 00:44:34;;;;;;;0.00;0.00;;;;;;;;;;1739551;28;20203;-70
2022/10/06 00:45:29;;;;;;;0.00;0.00;;;;;;;;;;1738827;28;20198;-70
2022/10/06 00:46:23;;;;;;;0.00;0.00;;;;;;;;;;1739724;28;20207;-71
2022/10/06 00:47:15;;;;;;;0.00;0.00;;;;;;;;;;1738369;28;20357;-71
2022/10/06 00:48:08;;;;;;;0.00;0.00;;;;;;;;;;1739712;28;20234;-71
2022/10/06 00:49:03;;;;;;;0.00;0.00;;;;;;;;;;1738728;28;20208;-71
2022/10/06 00:49:55;;;;;;;0.00;0.00;;;;;;;;;;1739390;28;20377;-71
2022/10/06 00:50:47;;;;;;;0.00;0.00;;;;;;;;;;1739160;28;20635;-71
2022/10/06 00:51:40;;;;;;;0.00;0.00;;;;;;;;;;1739441;28;20230;-70
2022/10/06 00:52:33;;;;;;;0.00;0.00;;;;;;;;;;1738258;28;20237;-70
2022/10/06 00:53:25;;;;;;;0.00;0.00;;;;;;;;;;1739417;28;20211;-70
2022/10/06 00:54:18;;;;;;;0.00;0.00;;;;;;;;;;1738833;28;20870;-70
2022/10/06 00:55:09;;;;;;;0.00;0.00;;;;;;;;;;1740300;28;20211;-70
2022/10/06 00:56:01;;;;;;;0.00;0.00;;;;;;;;;;1738530;28;20583;-70
2022/10/06 00:56:52;;;;;;;0.00;0.00;;;;;;;;;;1739725;28;20575;-70
2022/10/06 00:57:45;;;;;;;0.00;0.00;;;;;;;;;;1738340;28;20532;-70
2022/10/06 00:58:37;;;;;;;0.00;0.00;;;;;;;;;;1739596;28;20203;-70
2022/10/06 00:59:29;;;;;;;0.00;0.00;;;;;;;;;;1738691;28;20552;-70
2022/10/06 01:00:20;;;;;;;0.00;0.00;;;;;;;;;;1733206;28;20252;-70
2022/10/06 01:01:13;;;;;;;0.00;0.00;;;;;;;;;;1739961;28;20245;-71
2022/10/06 01:02:07;;;;;;;0.00;0.00;;;;;;;;;;1739590;28;20318;-71
2022/10/06 01:03:02;;;;;;;0.00;0.00;;;;;;;;;;1740493;28;20241;-71
2022/10/06 01:03:55;;;;;;;0.00;0.00;;;;;;;;;;1739707;28;20226;-71
2022/10/06 01:04:48;;;;;;;0.00;0.00;;;;;;;;;;1740721;28;20226;-71
2022/10/06 01:05:40;;;;;;;0.00;0.00;;;;;;;;;;1740110;28;20215;-71
2022/10/06 01:06:44;;;;;;;0.00;0.00;;;;;;;;;;1740711;28;20655;-71
2022/10/06 01:07:35;;;;;;;0.00;0.00;;;;;;;;;;1740015;28;20554;-71
2022/10/06 01:08:27;;;;;;;0.00;0.00;;;;;;;;;;1740530;28;20210;-71
2022/10/06 01:09:19;;;;;;;0.00;0.00;;;;;;;;;;1739881;28;20210;-71
2022/10/06 01:10:11;;;;;;;0.00;0.00;;;;;;;;;;1741261;28;20304;-71
2022/10/06 01:11:02;;;;;;;0.00;0.00;;;;;;;;;;1739933;28;20215;-70
2022/10/06 01:11:56;;;;;;;0.00;0.00;;;;;;;;;;1740715;28;20218;-70
2022/10/06 01:12:47;;;;;;;0.00;0.00;;;;;;;;;;1739713;28;20214;-70
2022/10/06 01:13:40;;;;;;;0.00;0.00;;;;;;;;;;1740372;28;20207;-70
2022/10/06 01:14:31;;;;;;;0.00;0.00;;;;;;;;;;1739114;28;20275;-70
2022/10/06 01:15:24;;;;;;;0.00;0.00;;;;;;;;;;1741012;28;20195;-70
2022/10/06 01:16:17;;;;;;;0.00;0.00;;;;;;;;;;1740497;28;20207;-70
2022/10/06 01:17:14;;;;;;;0.00;0.00;;;;;;;;;;1740017;28;20629;-70
2022/10/06 01:18:07;;;;;;;0.00;0.00;;;;;;;;;;1737864;28;20243;-70
2022/10/06 01:19:01;;;;;;;0.00;0.00;;;;;;;;;;1738941;28;20207;-70
2022/10/06 01:19:53;;;;;;;0.00;0.00;;;;;;;;;;1740822;28;20304;-70
2022/10/06 01:20:47;;;;;;;0.00;0.00;;;;;;;;;;1739729;28;20203;-71
2022/10/06 01:21:41;;;;;;;0.00;0.00;;;;;;;;;;1740680;28;20237;-70
2022/10/06 01:22:35;;;;;;;0.00;0.00;;;;;;;;;;1739292;28;20546;-70
2022/10/06 01:23:27;;;;;;;0.00;0.00;;;;;;;;;;1740927;28;20218;-71
2022/10/06 01:24:18;;;;;;;0.00;0.00;;;;;;;;;;1739379;28;20242;-70
2022/10/06 01:25:12;;;;;;;0.00;0.00;;;;;;;;;;1741096;28;20206;-71
2022/10/06 01:26:04;;;;;;;0.00;0.00;;;;;;;;;;1739637;28;20568;-71
2022/10/06 01:26:57;;;;;;;0.00;0.00;;;;;;;;;;1740868;28;20280;-70
2022/10/06 01:27:52;;;;;;;0.00;0.00;;;;;;;;;;1739750;28;20218;-70
2022/10/06 01:28:44;;;;;;;0.00;0.00;;;;;;;;;;1740693;28;20203;-70
2022/10/06 01:29:35;;;;;;;0.00;0.00;;;;;;;;;;1740506;28;20292;-70
2022/10/06 01:30:29;;;;;;;0.00;0.00;;;;;;;;;;1740260;28;20610;-70
2022/10/06 01:31:20;;;;;;;0.00;0.00;;;;;;;;;;1736913;28;20542;-71
2022/10/06 01:32:12;;;;;;;0.00;0.00;;;;;;;;;;1739462;28;20242;-71
2022/10/06 01:33:03;;;;;;;0.00;0.00;;;;;;;;;;1740741;28;20239;-71
2022/10/06 01:33:56;;;;;;;0.00;0.00;;;;;;;;;;1739668;28;20688;-70
2022/10/06 01:34:47;;;;;;;0.00;0.00;;;;;;;;;;1740544;28;20199;-70
2022/10/06 01:35:39;;;;;;;0.00;0.00;;;;;;;;;;1739285;28;20199;-70
2022/10/06 01:36:30;;;;;;;0.00;0.00;;;;;;;;;;1740970;28;20230;-71
2022/10/06 01:37:22;;;;;;;0.00;0.00;;;;;;;;;;1739325;28;20237;-71
2022/10/06 01:38:14;;;;;;;0.00;0.00;;;;;;;;;;1740858;28;20300;-71
2022/10/06 01:39:07;;;;;;;0.00;0.00;;;;;;;;;;1739470;28;20203;-71
2022/10/06 01:39:58;;;;;;;0.00;0.00;;;;;;;;;;1740256;28;20280;-71
2022/10/06 01:40:50;;;;;;;0.00;0.00;;;;;;;;;;1739766;28;20199;-72
2022/10/06 01:41:44;;;;;;;0.00;0.00;;;;;;;;;;1740560;28;20231;-70
2022/10/06 01:42:35;;;;;;;0.00;0.00;;;;;;;;;;1738952;28;20636;-70
2022/10/06 01:43:27;;;;;;;0.00;0.00;;;;;;;;;;1740692;28;20195;-70
2022/10/06 01:44:18;;;;;;;0.00;0.00;;;;;;;;;;1739486;28;20663;-70
2022/10/06 01:45:10;;;;;;;0.00;0.00;;;;;;;;;;1740912;28;20215;-71
2022/10/06 01:46:02;;;;;;;0.00;0.00;;;;;;;;;;1739567;28;20207;-71
2022/10/06 01:46:53;;;;;;;0.00;0.00;;;;;;;;;;1740907;28;20246;-71
2022/10/06 01:47:45;;;;;;;0.00;0.00;;;;;;;;;;1739450;28;20237;-71
2022/10/06 01:48:36;;;;;;;0.00;0.00;;;;;;;;;;1740917;28;20231;-71
2022/10/06 01:49:28;;;;;;;0.00;0.00;;;;;;;;;;1739300;28;20195;-71
2022/10/06 01:50:19;;;;;;;0.00;0.00;;;;;;;;;;1740725;28;20266;-71
2022/10/06 01:51:14;;;;;;;0.00;0.00;;;;;;;;;;1739525;28;20226;-71
2022/10/06 01:52:06;;;;;;;0.00;0.00;;;;;;;;;;1739565;28;20195;-71
2022/10/06 01:52:58;;;;;;;0.00;0.00;;;;;;;;;;1739913;28;20199;-71
2022/10/06 01:53:50;;;;;;;0.00;0.00;;;;;;;;;;1739402;28;20291;-71
2022/10/06 01:54:42;;;;;;;0.00;0.00;;;;;;;;;;1740631;28;20206;-71
2022/10/06 01:55:34;;;;;;;0.00;0.00;;;;;;;;;;1739234;28;20249;-71
2022/10/06 01:56:26;;;;;;;0.00;0.00;;;;;;;;;;1740684;28;20517;-71
2022/10/06 01:57:17;;;;;;;0.00;0.00;;;;;;;;;;1739259;28;20257;-71
2022/10/06 01:58:09;;;;;;;0.00;0.00;;;;;;;;;;1740349;28;20629;-71
2022/10/06 01:59:00;;;;;;;0.00;0.00;;;;;;;;;;1739206;28;20671;-71
2022/10/06 01:59:52;;;;;;;0.00;0.00;;;;;;;;;;1740361;28;20664;-71
2022/10/06 02:00:43;;;;;;;0.00;0.00;;;;;;;;;;1739934;28;20317;-71
2022/10/06 02:01:35;;;;;;;0.00;0.00;;;;;;;;;;1740504;28;20526;-72
2022/10/06 02:02:29;;;;;;;0.00;0.00;;;;;;;;;;1739419;28;20640;-71
2022/10/06 02:03:21;;;;;;;0.00;0.00;;;;;;;;;;1740564;28;20588;-71
2022/10/06 02:04:12;;;;;;;0.00;0.00;;;;;;;;;;1739426;28;20668;-72
2022/10/06 02:05:05;;;;;;;0.00;0.00;;;;;;;;;;1740821;28;20701;-71
2022/10/06 02:05:56;;;;;;;0.00;0.00;;;;;;;;;;1738169;28;20671;-71
2022/10/06 02:06:49;;;;;;;0.00;0.00;;;;;;;;;;1740709;28;20202;-71
2022/10/06 02:07:40;;;;;;;0.00;0.00;;;;;;;;;;1738970;28;20482;-72
2022/10/06 02:08:32;;;;;;;0.00;0.00;;;;;;;;;;1740542;28;20207;-71
2022/10/06 02:09:25;;;;;;;0.00;0.00;;;;;;;;;;1738851;28;20249;-71
2022/10/06 02:10:17;;;;;;;0.00;0.00;;;;;;;;;;1740891;28;20666;-71
2022/10/06 02:11:09;;;;;;;0.00;0.00;;;;;;;;;;1739736;28;20751;-71
2022/10/06 02:12:01;;;;;;;0.00;0.00;;;;;;;;;;1739161;28;20261;-70
2022/10/06 02:12:52;;;;;;;0.10;0.10;;;;;;;;;;1740023;28;20249;-70
2022/10/06 02:13:43;;;;;;;0.00;0.00;;;;;;;;;;1739488;28;20198;-70
2022/10/06 02:14:36;;;;;;;0.00;0.00;;;;;;;;;;1740247;28;20226;-71
2022/10/06 02:15:31;;;;;;;0.00;0.00;;;;;;;;;;1739845;28;20214;-70
2022/10/06 02:16:23;;;;;;;0.00;0.00;;;;;;;;;;1736703;28;20230;-72
2022/10/06 02:17:15;;;;;;;0.00;0.00;;;;;;;;;;1739169;28;20203;-71
2022/10/06 02:18:07;;;;;;;0.00;0.00;;;;;;;;;;1740419;28;20215;-71
2022/10/06 02:18:58;;;;;;;0.00;0.00;;;;;;;;;;1738684;28;20234;-72
2022/10/06 02:19:50;;;;;;;0.00;0.00;;;;;;;;;;1740410;28;20206;-71
2022/10/06 02:20:42;;;;;;;0.00;0.00;;;;;;;;;;1739616;28;20443;-71
2022/10/06 02:21:34;;;;;;;0.00;0.00;;;;;;;;;;1740263;28;20601;-72
2022/10/06 02:22:25;;;;;;;0.00;0.00;;;;;;;;;;1738844;28;20605;-71
2022/10/06 02:23:17;;;;;;;0.00;0.00;;;;;;;;;;1740317;28;20272;-72
2022/10/06 02:24:08;;;;;;;0.00;0.00;;;;;;;;;;1739498;28;20250;-72
2022/10/06 02:25:04;;;;;;;0.00;0.00;;;;;;;;;;1740277;28;20207;-72
2022/10/06 02:25:59;;;;;;;0.00;0.00;;;;;;;;;;1739302;28;20218;-71
2022/10/06 02:26:51;;;;;;;0.00;0.00;;;;;;;;;;1740294;28;20199;-70
2022/10/06 02:27:42;;;;;;;0.00;0.00;;;;;;;;;;1738993;28;20544;-70
2022/10/06 02:28:35;;;;;;;0.00;0.00;;;;;;;;;;1740552;28;20651;-71
2022/10/06 02:29:26;;;;;;;0.00;0.00;;;;;;;;;;1738804;28;20639;-70
2022/10/06 02:30:18;;;;;;;0.00;0.00;;;;;;;;;;1740890;28;20203;-70
2022/10/06 02:31:09;;;;;;;0.00;0.00;;;;;;;;;;1738907;28;20301;-71
2022/10/06 02:32:01;;;;;;;0.00;0.00;;;;;;;;;;1739828;28;20209;-71
2022/10/06 02:32:52;;;;;;;0.00;0.00;;;;;;;;;;1739308;28;20207;-70
2022/10/06 02:33:44;;;;;;;0.00;0.00;;;;;;;;;;1739403;28;20198;-70
2022/10/06 02:34:35;;;;;;;0.00;0.00;;;;;;;;;;1740079;28;20235;-71
2022/10/06 02:35:27;;;;;;;0.00;0.00;;;;;;;;;;1739608;28;20203;-70
2022/10/06 02:36:18;;;;;;;0.00;0.00;;;;;;;;;;1740323;28;20249;-71
2022/10/06 02:37:14;;;;;;;0.00;0.00;;;;;;;;;;1739243;28;20553;-71
2022/10/06 02:38:05;;;;;;;0.00;0.00;;;;;;;;;;1737420;28;20214;-71
2022/10/06 02:38:57;;;;;;;0.00;0.00;;;;;;;;;;1739093;28;20211;-71
2022/10/06 02:39:48;;;;;;;0.00;0.00;;;;;;;;;;1739936;28;20711;-71
2022/10/06 02:40:42;;;;;;;0.00;0.00;;;;;;;;;;1739517;28;20298;-71
2022/10/06 02:41:33;;;;;;;0.00;0.00;;;;;;;;;;1740174;28;20203;-70
2022/10/06 02:42:25;;;;;;;0.00;0.00;;;;;;;;;;1738870;28;20587;-71
2022/10/06 02:43:16;;;;;;;0.00;0.00;;;;;;;;;;1739927;28;20671;-70
2022/10/06 02:44:08;;;;;;;0.00;0.00;;;;;;;;;;1738936;28;20214;-71
2022/10/06 02:44:59;;;;;;;0.00;0.00;;;;;;;;;;1740346;28;20620;-71
2022/10/06 02:45:54;;;;;;;0.00;0.00;;;;;;;;;;1739177;28;20506;-70
2022/10/06 02:46:46;;;;;;;0.00;0.00;;;;;;;;;;1740292;28;20644;-70
2022/10/06 02:47:38;;;;;;;0.00;0.00;;;;;;;;;;1738548;28;20286;-70
2022/10/06 02:48:30;;;;;;;0.00;0.00;;;;;;;;;;1740314;28;20586;-70
2022/10/06 02:49:21;;;;;;;0.00;0.00;;;;;;;;;;1738645;28;20659;-70
2022/10/06 02:50:13;;;;;;;0.00;0.00;;;;;;;;;;1740734;28;20294;-70
2022/10/06 02:51:06;;;;;;;0.00;0.00;;;;;;;;;;1738510;28;20218;-71
2022/10/06 02:51:58;;;;;;;0.00;0.00;;;;;;;;;;1739743;28;20199;-71
2022/10/06 02:52:49;;;;;;;0.00;0.00;;;;;;;;;;1738789;28;20702;-71
2022/10/06 02:53:42;;;;;;;0.00;0.00;;;;;;;;;;1739916;28;20199;-71
2022/10/06 02:54:35;;;;;;;0.00;0.00;;;;;;;;;;1740049;28;20298;-71
2022/10/06 02:55:27;;;;;;;0.00;0.00;;;;;;;;;;1739661;28;20704;-71
2022/10/06 02:56:20;;;;;;;0.00;0.00;;;;;;;;;;1739935;28;20553;-70
2022/10/06 02:57:12;;;;;;;0.00;0.00;;;;;;;;;;1739316;28;20218;-70
2022/10/06 02:58:04;;;;;;;0.00;0.00;;;;;;;;;;1739766;28;20245;-70
2022/10/06 02:58:56;;;;;;;0.00;0.00;;;;;;;;;;1739217;28;20211;-70
2022/10/06 02:59:47;;;;;;;0.00;0.00;;;;;;;;;;1737136;28;20241;-70
2022/10/06 03:00:39;;;;;;;0.00;0.00;;;;;;;;;;1735055;28;20211;-70
2022/10/06 03:01:30;;;;;;;0.00;0.00;;;;;;;;;;1740053;28;20207;-70
2022/10/06 03:02:22;;;;;;;0.00;0.00;;;;;;;;;;1738179;28;20238;-70
2022/10/06 03:03:13;;;;;;;0.00;0.00;;;;;;;;;;1739956;28;20302;-70
2022/10/06 03:04:05;;;;;;;0.00;0.00;;;;;;;;;;1738554;28;20796;-70
2022/10/06 03:04:56;;;;;;;0.00;0.00;;;;;;;;;;1740078;28;20272;-70
2022/10/06 03:05:48;;;;;;;0.00;0.00;;;;;;;;;;1737293;28;20322;-70
2022/10/06 03:06:40;;;;;;;0.00;0.00;;;;;;;;;;1738438;28;20230;-70
2022/10/06 03:07:32;;;;;;;0.00;0.00;;;;;;;;;;1738054;28;20199;-70
2022/10/06 03:08:23;;;;;;;0.00;0.00;;;;;;;;;;1739229;28;20209;-70
2022/10/06 03:09:16;;;;;;;0.00;0.00;;;;;;;;;;1738730;28;20207;-70
2022/10/06 03:10:08;;;;;;;0.00;0.00;;;;;;;;;;1740489;28;20242;-70
2022/10/06 03:11:01;;;;;;;0.00;0.00;;;;;;;;;;1739007;28;20222;-70
2022/10/06 03:11:53;;;;;;;0.00;0.00;;;;;;;;;;1739805;28;20587;-70
2022/10/06 03:12:45;;;;;;;0.00;0.00;;;;;;;;;;1739199;28;20207;-70
2022/10/06 03:13:36;;;;;;;0.00;0.00;;;;;;;;;;1740561;28;20231;-70
2022/10/06 03:14:28;;;;;;;0.00;0.00;;;;;;;;;;1739155;28;20213;-70
2022/10/06 03:15:19;;;;;;;0.00;0.00;;;;;;;;;;1740280;28;20671;-70
2022/10/06 03:16:14;;;;;;;0.00;0.00;;;;;;;;;;1740026;28;20199;-71
2022/10/06 03:17:08;;;;;;;0.00;0.00;;;;;;;;;;1739341;28;20225;-71
2022/10/06 03:17:59;;;;;;;0.00;0.00;;;;;;;;;;1739974;28;20207;-71
2022/10/06 03:18:52;;;;;;;0.00;0.00;;;;;;;;;;1739014;28;20269;-71
2022/10/06 03:19:43;;;;;;;0.00;0.00;;;;;;;;;;1736431;28;20293;-71
2022/10/06 03:20:36;;;;;;;0.00;0.00;;;;;;;;;;1739135;28;20706;-71
2022/10/06 03:21:28;;;;;;;0.00;0.00;;;;;;;;;;1739822;28;20203;-71
2022/10/06 03:22:20;;;;;;;0.00;0.00;;;;;;;;;;1738561;28;21370;-71
2022/10/06 03:23:11;;;;;;;0.00;0.00;;;;;;;;;;1739690;28;20322;-71
2022/10/06 03:24:02;;;;;;;0.00;0.00;;;;;;;;;;1738679;28;20207;-71
2022/10/06 03:24:54;;;;;;;0.00;0.00;;;;;;;;;;1739605;28;20332;-71
2022/10/06 03:25:54;;;;;;;0.00;0.00;;;;;;;;;;1739344;28;20210;-71
2022/10/06 03:26:47;;;;;;;0.00;0.00;;;;;;;;;;1739745;28;20206;-70
2022/10/06 03:27:39;;;;;;;0.00;0.00;;;;;;;;;;1739019;28;20536;-70
2022/10/06 03:28:32;;;;;;;0.00;0.00;;;;;;;;;;1739677;28;20210;-70
2022/10/06 03:29:23;;;;;;;0.00;0.00;;;;;;;;;;1738897;28;20207;-70
2022/10/06 03:30:15;;;;;;;0.00;0.00;;;;;;;;;;1740264;28;20217;-70
2022/10/06 03:31:07;;;;;;;0.00;0.00;;;;;;;;;;1738670;28;20210;-70
2022/10/06 03:31:59;;;;;;;0.00;0.00;;;;;;;;;;1739640;28;20215;-70
2022/10/06 03:32:51;;;;;;;0.00;0.00;;;;;;;;;;1739138;28;20230;-70
2022/10/06 03:33:43;;;;;;;0.00;0.00;;;;;;;;;;1738879;28;20225;-70
2022/10/06 03:34:34;;;;;;;0.00;0.00;;;;;;;;;;1739808;28;20249;-71
2022/10/06 03:35:27;;;;;;;0.00;0.00;;;;;;;;;;1739188;28;20206;-70
2022/10/06 03:36:19;;;;;;;0.00;0.00;;;;;;;;;;1739892;28;20206;-71
2022/10/06 03:37:10;;;;;;;0.00;0.00;;;;;;;;;;1738996;28;20545;-71
2022/10/06 03:38:03;;;;;;;0.00;0.00;;;;;;;;;;1736349;28;20218;-71
2022/10/06 03:38:54;;;;;;;0.00;0.00;;;;;;;;;;1738459;28;20203;-71
2022/10/06 03:39:46;;;;;;;0.00;0.00;;;;;;;;;;1739706;28;20614;-71
2022/10/06 03:40:37;;;;;;;0.00;0.00;;;;;;;;;;1738807;28;20237;-71
2022/10/06 03:41:31;;;;;;;0.00;0.00;;;;;;;;;;1739610;28;20203;-70
2022/10/06 03:42:22;;;;;;;0.00;0.00;;;;;;;;;;1738382;28;20218;-70
2022/10/06 03:43:15;;;;;;;0.00;0.00;;;;;;;;;;1739510;28;20623;-70
2022/10/06 03:44:07;;;;;;;0.00;0.00;;;;;;;;;;1738697;28;20566;-70
2022/10/06 03:44:59;;;;;;;0.00;0.00;;;;;;;;;;1739873;28;20623;-70
2022/10/06 03:45:55;;;;;;;0.00;0.00;;;;;;;;;;1738901;28;20796;-70
2022/10/06 03:46:47;;;;;;;0.00;0.00;;;;;;;;;;1739895;28;20527;-71
2022/10/06 03:47:38;;;;;;;0.00;0.00;;;;;;;;;;1738266;28;20207;-71
2022/10/06 03:48:32;;;;;;;0.00;0.00;;;;;;;;;;1739969;28;20513;-71
2022/10/06 03:49:23;;;;;;;0.00;0.00;;;;;;;;;;1738352;28;20206;-71
2022/10/06 03:50:16;;;;;;;0.00;0.00;;;;;;;;;;1740376;28;20199;-71
2022/10/06 03:51:08;;;;;;;0.00;0.00;;;;;;;;;;1738304;28;20218;-71
2022/10/06 03:52:00;;;;;;;0.00;0.00;;;;;;;;;;1739229;28;20226;-71
2022/10/06 03:52:51;;;;;;;0.00;0.00;;;;;;;;;;1738716;28;20230;-71
2022/10/06 03:53:44;;;;;;;0.00;0.00;;;;;;;;;;1739281;28;20600;-71
2022/10/06 03:54:35;;;;;;;0.00;0.00;;;;;;;;;;1739887;28;20604;-71
2022/10/06 03:55:27;;;;;;;0.00;0.00;;;;;;;;;;1738959;28;20858;-71
2022/10/06 03:56:19;;;;;;;0.00;0.00;;;;;;;;;;1739132;28;20230;-70
2022/10/06 03:57:11;;;;;;;0.00;0.00;;;;;;;;;;1738588;28;20202;-71
2022/10/06 03:58:02;;;;;;;0.00;0.00;;;;;;;;;;1739533;28;20261;-70
2022/10/06 03:58:55;;;;;;;0.00;0.00;;;;;;;;;;1738582;28;20202;-70
2022/10/06 03:59:47;;;;;;;0.00;0.00;;;;;;;;;;1739530;28;20238;-70
2022/10/06 04:00:38;;;;;;;0.00;0.00;;;;;;;;;;1739377;28;20246;-71
2022/10/06 04:01:31;;;;;;;0.00;0.00;;;;;;;;;;1739622;28;20222;-71
2022/10/06 04:02:23;;;;;;;0.00;0.00;;;;;;;;;;1738281;28;20234;-71
2022/10/06 04:03:19;;;;;;;0.00;0.00;;;;;;;;;;1739709;28;20226;-71
2022/10/06 04:04:11;;;;;;;0.00;0.00;;;;;;;;;;1738703;28;20211;-71
2022/10/06 04:05:06;;;;;;;0.00;0.00;;;;;;;;;;1739748;28;20243;-71
2022/10/06 04:05:58;;;;;;;0.00;0.00;;;;;;;;;;1738142;28;20238;-71
2022/10/06 04:06:50;;;;;;;0.00;0.00;;;;;;;;;;1739662;28;20345;-71
2022/10/06 04:07:41;;;;;;;0.00;0.00;;;;;;;;;;1738360;28;20245;-71
2022/10/06 04:08:34;;;;;;;0.00;0.00;;;;;;;;;;1739746;28;20218;-71
2022/10/06 04:09:25;;;;;;;0.00;0.00;;;;;;;;;;1738427;28;20230;-71
2022/10/06 04:10:18;;;;;;;0.00;0.00;;;;;;;;;;1740259;28;20240;-71
2022/10/06 04:11:10;;;;;;;0.00;0.00;;;;;;;;;;1738518;28;20221;-70
2022/10/06 04:12:02;;;;;;;0.00;0.00;;;;;;;;;;1739062;28;20198;-70
2022/10/06 04:12:53;;;;;;;0.00;0.00;;;;;;;;;;1739332;28;20210;-70
2022/10/06 04:13:45;;;;;;;0.00;0.00;;;;;;;;;;1738889;28;20218;-70
2022/10/06 04:14:38;;;;;;;0.00;0.00;;;;;;;;;;1739487;28;20294;-70
2022/10/06 04:15:31;;;;;;;0.00;0.00;;;;;;;;;;1739219;28;20218;-70
2022/10/06 04:16:24;;;;;;;0.00;0.00;;;;;;;;;;1736162;28;20572;-70
2022/10/06 04:17:16;;;;;;;0.00;0.00;;;;;;;;;;1738421;28;20289;-70
2022/10/06 04:18:07;;;;;;;0.00;0.00;;;;;;;;;;1739865;28;20257;-70
2022/10/06 04:18:59;;;;;;;0.00;0.00;;;;;;;;;;1738195;28;20629;-70
2022/10/06 04:19:51;;;;;;;0.00;0.00;;;;;;;;;;1739807;28;20432;-70
2022/10/06 04:20:42;;;;;;;0.00;0.00;;;;;;;;;;1738757;28;20285;-70
2022/10/06 04:21:35;;;;;;;0.00;0.00;;;;;;;;;;1739717;28;20245;-71
2022/10/06 04:22:26;;;;;;;0.00;0.00;;;;;;;;;;1738979;28;20263;-71
2022/10/06 04:23:19;;;;;;;0.00;0.00;;;;;;;;;;1739564;28;20543;-71
2022/10/06 04:24:10;;;;;;;0.00;0.00;;;;;;;;;;1738764;28;20210;-71
2022/10/06 04:25:06;;;;;;;0.00;0.00;;;;;;;;;;1739651;28;20229;-71
2022/10/06 04:25:58;;;;;;;0.00;0.00;;;;;;;;;;1738856;28;20245;-70
2022/10/06 04:26:51;;;;;;;0.00;0.00;;;;;;;;;;1739634;28;20207;-70
2022/10/06 04:27:42;;;;;;;0.00;0.00;;;;;;;;;;1738548;28;20203;-70
2022/10/06 04:28:33;;;;;;;0.00;0.00;;;;;;;;;;1739819;28;20336;-70
2022/10/06 04:29:25;;;;;;;0.00;0.00;;;;;;;;;;1738466;28;20205;-70
2022/10/06 04:30:17;;;;;;;0.00;0.00;;;;;;;;;;1740091;28;20636;-70
2022/10/06 04:31:12;;;;;;;0.00;0.00;;;;;;;;;;1739224;28;20413;-71
2022/10/06 04:32:03;;;;;;;0.00;0.00;;;;;;;;;;1738573;28;20203;-71
2022/10/06 04:32:55;;;;;;;0.00;0.00;;;;;;;;;;1739495;28;20647;-71
2022/10/06 04:33:47;;;;;;;0.00;0.00;;;;;;;;;;1738814;28;20289;-71
2022/10/06 04:34:39;;;;;;;0.00;0.00;;;;;;;;;;1739781;28;20201;-71
2022/10/06 04:35:30;;;;;;;0.00;0.00;;;;;;;;;;1740552;28;20252;-71
2022/10/06 04:36:23;;;;;;;0.00;0.00;;;;;;;;;;1737424;28;20479;-70
2022/10/06 04:37:14;;;;;;;0.00;0.00;;;;;;;;;;1739894;28;20233;-70
2022/10/06 04:38:06;;;;;;;0.00;0.00;;;;;;;;;;1741025;28;20526;-70
2022/10/06 04:38:58;;;;;;;0.00;0.00;;;;;;;;;;1739900;28;20717;-71
2022/10/06 04:39:50;;;;;;;0.00;0.00;;;;;;;;;;1740886;28;20213;-70
2022/10/06 04:40:41;;;;;;;0.00;0.00;;;;;;;;;;1740051;28;20231;-70
2022/10/06 04:41:34;;;;;;;0.00;0.00;;;;;;;;;;1740896;28;20226;-72
2022/10/06 04:42:27;;;;;;;0.00;0.00;;;;;;;;;;1739148;28;20493;-71
2022/10/06 04:43:20;;;;;;;0.00;0.00;;;;;;;;;;1740541;28;20202;-71
2022/10/06 04:44:11;;;;;;;0.00;0.00;;;;;;;;;;1739747;28;20203;-71
2022/10/06 04:45:06;;;;;;;0.00;0.00;;;;;;;;;;1740962;28;20375;-71
2022/10/06 04:45:59;;;;;;;0.00;0.00;;;;;;;;;;1739744;28;20628;-70
2022/10/06 04:46:51;;;;;;;0.00;0.00;;;;;;;;;;1741252;28;20195;-70
2022/10/06 04:47:42;;;;;;;0.00;0.00;;;;;;;;;;1739529;28;20317;-70
2022/10/06 04:48:34;;;;;;;0.00;0.00;;;;;;;;;;1741010;28;20682;-70
2022/10/06 04:49:25;;;;;;;0.00;0.00;;;;;;;;;;1739571;28;20609;-70
2022/10/06 04:50:17;;;;;;;0.00;0.00;;;;;;;;;;1740280;28;20237;-70
2022/10/06 04:51:10;;;;;;;0.00;0.00;;;;;;;;;;1739426;28;20234;-70
2022/10/06 04:52:01;;;;;;;0.00;0.00;;;;;;;;;;1740025;28;20237;-70
2022/10/06 04:52:53;;;;;;;0.00;0.00;;;;;;;;;;1740363;28;20278;-70
2022/10/06 04:53:45;;;;;;;0.00;0.00;;;;;;;;;;1740427;28;20203;-70
2022/10/06 04:54:37;;;;;;;0.00;0.00;;;;;;;;;;1740200;28;20668;-70
2022/10/06 04:55:28;;;;;;;0.00;0.00;;;;;;;;;;1740705;28;20231;-70
2022/10/06 04:56:22;;;;;;;0.00;0.00;;;;;;;;;;1740681;28;20206;-71
2022/10/06 04:57:13;;;;;;;0.00;0.00;;;;;;;;;;1739418;28;20237;-71
2022/10/06 04:58:05;;;;;;;0.00;0.00;;;;;;;;;;1740866;28;20268;-71
2022/10/06 04:58:57;;;;;;;0.00;0.00;;;;;;;;;;1739290;28;20210;-71
2022/10/06 05:01:16;;;;;;;0.00;0.00;;;;;;;;;;1719101;28;20232;-71
2022/10/06 05:02:07;;;;;;;0.00;0.00;;;;;;;;;;1719090;28;20236;-70
2022/10/06 05:02:59;;;;;;;0.00;0.00;;;;;;;;;;1719326;28;20228;-70
2022/10/06 05:03:51;;;;;;;0.00;0.00;;;;;;;;;;1729883;28;20230;-70
2022/10/06 05:04:43;;;;;;;0.00;0.00;;;;;;;;;;1737220;28;20195;-70
2022/10/06 05:05:34;;;;;;;0.00;0.00;;;;;;;;;;1740178;28;20237;-70
2022/10/06 05:06:27;;;;;;;0.00;0.00;;;;;;;;;;1740904;28;20237;-70
2022/10/06 05:07:18;;;;;;;0.00;0.00;;;;;;;;;;1739510;28;20736;-70
2022/10/06 05:08:10;;;;;;;0.00;0.00;;;;;;;;;;1740940;28;20203;-70
2022/10/06 05:09:03;;;;;;;0.00;0.00;;;;;;;;;;1739723;28;20374;-70
2022/10/06 05:09:56;;;;;;;0.00;0.00;;;;;;;;;;1741027;28;20629;-71
2022/10/06 05:10:47;;;;;;;0.00;0.00;;;;;;;;;;1740496;28;20230;-70
2022/10/06 05:11:39;;;;;;;0.00;0.00;;;;;;;;;;1740702;28;20494;-71
2022/10/06 05:12:30;;;;;;;0.00;0.00;;;;;;;;;;1739775;28;20281;-71
2022/10/06 05:13:22;;;;;;;0.00;0.00;;;;;;;;;;1740757;28;20211;-71
2022/10/06 05:14:13;;;;;;;0.00;0.00;;;;;;;;;;1739686;28;20269;-71